This is the latest recevied weather packets stored in our database for station/object WS2Z. If no packets are shown the sender has not sent any weather packets the latest 10 day(s).
| Time | Temp. | Humidity | Pressure | Rain* | Wind** | Luminosity | Snow |
|---|---|---|---|---|---|---|---|
| 1777912040 | 27.22° C | 68% | 1016 hPa | 0 mm | - | 231 W/m² | - |
| 1777911737 | 26.67° C | 69% | 1015.8 hPa | 0 mm | - | 277 W/m² | - |
| 1777911434 | 26.67° C | 70% | 1016.1 hPa | 0 mm | - | 328 W/m² | - |
| 1777911131 | 26.67° C | 69% | 1015.9 hPa | 0 mm | - | 283 W/m² | - |
| 1777910828 | 26.67° C | 69% | 1016 hPa | 0 mm | - | 405 W/m² | - |
| 1777910221 | 26.67° C | 70% | 1016.2 hPa | 0 mm | - | 193 W/m² | - |
| 1777909615 | 26.67° C | 69% | 1016.4 hPa | 0 mm | - | 307 W/m² | - |
| 1777909010 | 26.11° C | 72% | 1016.2 hPa | 0 mm | - | 188 W/m² | - |
| 1777908708 | 26.11° C | 72% | 1016.4 hPa | 0 mm | - | 244 W/m² | - |
| 1777908405 | 25.56° C | 73% | 1016.3 hPa | 0 mm | - | 172 W/m² | - |
| 1777907493 | 26.11° C | 72% | 1016.3 hPa | 0 mm | - | 192 W/m² | - |
| 1777907190 | 26.67° C | 70% | 1016.6 hPa | 0 mm | - | 207 W/m² | - |
| 1777906887 | 26.11° C | 72% | 1016.5 hPa | 0 mm | - | 240 W/m² | - |
| 1777905370 | 24.44° C | 75% | 1016.4 hPa | 0 mm | - | 172 W/m² | - |
| 1777905068 | 24.44° C | 75% | 1016.3 hPa | 0 mm | - | 516 W/m² | - |
| 1777904462 | 24.44° C | 77% | 1016.1 hPa | 0 mm | - | 366 W/m² | - |
| 1777903552 | 23.89° C | 78% | 1016.1 hPa | 0 mm | - | 519 W/m² | - |
| 1777901129 | 21.67° C | 86% | 1016 hPa | 0 mm | - | 101 W/m² | - |
| 1777898100 | 21.11° C | 89% | 1015.9 hPa | 0 mm | - | 56 W/m² | - |
| 1777897795 | 20.56° C | 90% | 1015.9 hPa | 0 mm | - | 57 W/m² | - |
| 1777897493 | 20.56° C | 90% | 1015.9 hPa | 0 mm | - | 58 W/m² | - |
| 1777897188 | 20.56° C | 91% | 1015.7 hPa | 0 mm | - | 49 W/m² | - |
| 1777896884 | 20.56° C | 90% | 1015.6 hPa | 0 mm | - | 41 W/m² | - |
| 1777896582 | 20.56° C | 91% | 1015.6 hPa | 0 mm | - | 39 W/m² | - |
| 1777896279 | 20.56° C | 92% | 1015.7 hPa | 0 mm | - | 42 W/m² | - |
* Rain latest hour (hover to see other rain measurements)
** Current wind speed in m/s (hover to see current wind gust speed)